createdAt,value
2019-05-10T00:02:31.519Z,11.30
2019-05-10T00:05:04.408Z,11.30
2019-05-10T00:07:37.055Z,11.30
2019-05-10T00:10:03.629Z,11.30
2019-05-10T00:12:39.412Z,11.30
2019-05-10T00:15:06.340Z,11.30
2019-05-10T00:17:33.256Z,11.30
2019-05-10T00:20:00.520Z,11.30
2019-05-10T00:22:27.502Z,11.00
2019-05-10T00:25:03.802Z,11.30
2019-05-10T00:27:21.399Z,9.70
2019-05-10T00:29:48.392Z,11.40
2019-05-10T00:32:15.257Z,11.40
2019-05-10T00:34:42.245Z,11.40
2019-05-10T00:37:09.180Z,11.40
2019-05-10T00:39:36.111Z,11.40
2019-05-10T00:42:03.131Z,11.40
2019-05-10T00:44:30.033Z,11.40
2019-05-10T00:46:56.952Z,11.40
2019-05-10T00:49:23.889Z,11.40
2019-05-10T00:51:50.825Z,11.40
2019-05-10T00:54:17.752Z,11.30
2019-05-10T00:56:44.683Z,10.50
2019-05-10T00:59:11.607Z,11.30
2019-05-10T01:01:38.604Z,11.30
2019-05-10T01:04:05.507Z,11.20
2019-05-10T01:06:32.849Z,11.20
2019-05-10T01:08:59.775Z,11.20
2019-05-10T01:11:26.736Z,11.20
2019-05-10T01:13:53.660Z,10.80
2019-05-10T01:16:20.585Z,10.50
2019-05-10T01:18:47.515Z,11.20
2019-05-10T01:21:14.461Z,11.20
2019-05-10T01:23:41.376Z,11.10
2019-05-10T01:26:08.327Z,11.10
2019-05-10T01:28:35.268Z,11.10
2019-05-10T01:31:02.189Z,11.10
2019-05-10T01:33:29.135Z,9.90
2019-05-10T01:35:56.068Z,11.10
2019-05-10T01:38:23.061Z,11.10
2019-05-10T01:40:49.994Z,11.10
2019-05-10T01:43:16.926Z,11.00
2019-05-10T01:45:43.840Z,11.00
2019-05-10T01:48:10.801Z,11.00
2019-05-10T01:50:37.716Z,11.00
2019-05-10T01:53:04.629Z,11.00
2019-05-10T01:55:31.568Z,11.00
2019-05-10T01:57:58.584Z,11.00
2019-05-10T02:00:25.551Z,11.00
2019-05-10T02:02:52.523Z,11.10
2019-05-10T02:05:19.448Z,11.00
2019-05-10T02:07:47.137Z,11.00
2019-05-10T02:10:14.105Z,11.00
2019-05-10T02:12:41.033Z,11.10
2019-05-10T02:15:07.961Z,11.00
2019-05-10T02:17:34.901Z,10.90
2019-05-10T02:20:01.893Z,10.90
2019-05-10T02:22:28.815Z,10.90
2019-05-10T02:24:55.775Z,10.80
2019-05-10T02:27:22.703Z,10.80
2019-05-10T02:29:49.628Z,10.80
2019-05-10T02:32:16.576Z,10.90
2019-05-10T02:34:43.514Z,10.40
2019-05-10T02:37:10.453Z,10.90
2019-05-10T02:39:37.381Z,10.90
2019-05-10T02:42:04.321Z,10.90
2019-05-10T02:44:31.234Z,10.80
2019-05-10T02:46:58.217Z,10.90
2019-05-10T02:49:25.150Z,9.60
2019-05-10T02:51:52.061Z,10.70
2019-05-10T02:54:19.005Z,10.90
2019-05-10T02:56:45.926Z,10.70
2019-05-10T02:59:12.841Z,10.70
2019-05-10T03:01:42.703Z,10.60
2019-05-10T03:04:09.588Z,10.30
2019-05-10T03:06:36.503Z,10.70
2019-05-10T03:09:05.687Z,10.70
2019-05-10T03:11:32.720Z,10.70
2019-05-10T03:13:59.641Z,10.60
2019-05-10T03:16:26.583Z,10.70
2019-05-10T03:18:53.528Z,10.70
2019-05-10T03:21:20.998Z,10.70
2019-05-10T03:24:00.380Z,10.60
2019-05-10T03:26:27.289Z,10.60
2019-05-10T03:28:54.225Z,10.60
2019-05-10T03:31:21.171Z,10.70
2019-05-10T03:33:55.438Z,10.70
2019-05-10T03:36:15.046Z,10.70
2019-05-10T03:38:42.009Z,10.60
2019-05-10T03:41:08.946Z,10.70
2019-05-10T03:43:35.866Z,10.60
2019-05-10T03:46:02.821Z,10.60
2019-05-10T03:48:29.994Z,10.50
2019-05-10T03:50:56.930Z,10.60
2019-05-10T03:53:23.870Z,10.50
2019-05-10T03:55:50.820Z,10.40
2019-05-10T03:58:17.757Z,10.60
2019-05-10T04:00:44.718Z,10.50
2019-05-10T04:03:11.641Z,10.60
2019-05-10T04:05:38.576Z,10.60
2019-05-10T04:08:05.541Z,10.60
2019-05-10T04:10:33.860Z,10.60
2019-05-10T04:13:00.802Z,10.60
2019-05-10T04:15:27.744Z,10.60
2019-05-10T04:17:54.703Z,10.60
2019-05-10T04:20:21.593Z,10.60
2019-05-10T04:22:48.567Z,10.70
2019-05-10T04:25:15.491Z,10.60
2019-05-10T04:27:42.414Z,10.70
2019-05-10T04:30:09.367Z,10.70
2019-05-10T04:32:36.288Z,10.70
2019-05-10T04:35:03.405Z,10.70
2019-05-10T04:37:30.426Z,10.70
2019-05-10T04:39:57.349Z,10.80
2019-05-10T04:42:24.294Z,10.80
2019-05-10T04:44:53.710Z,10.70
2019-05-10T04:47:18.193Z,10.80
2019-05-10T04:49:45.146Z,8.60
2019-05-10T04:52:12.389Z,10.80
2019-05-10T04:54:39.316Z,10.90
2019-05-10T04:57:06.234Z,10.80
2019-05-10T04:59:33.179Z,10.80
2019-05-10T05:02:00.117Z,10.80
2019-05-10T05:04:27.049Z,10.90
2019-05-10T05:06:53.979Z,10.90
2019-05-10T05:09:21.011Z,11.00
2019-05-10T05:11:48.277Z,11.00
2019-05-10T05:14:15.221Z,11.00
2019-05-10T05:16:42.147Z,11.00
2019-05-10T05:19:09.199Z,11.10
2019-05-10T05:21:36.168Z,11.10
2019-05-10T05:24:03.116Z,11.10
2019-05-10T05:26:30.255Z,11.20
2019-05-10T05:28:57.188Z,11.20
2019-05-10T05:31:24.129Z,11.20
2019-05-10T05:33:51.032Z,11.20
2019-05-10T05:36:17.990Z,11.30
2019-05-10T05:38:47.297Z,11.20
2019-05-10T05:41:11.848Z,11.30
2019-05-10T05:43:45.553Z,10.30
2019-05-10T05:46:05.700Z,11.30
2019-05-10T05:48:40.386Z,11.20
2019-05-10T05:50:59.572Z,10.30
2019-05-10T05:53:26.487Z,11.30
2019-05-10T05:55:53.416Z,10.00
2019-05-10T05:58:26.535Z,11.60
2019-05-10T06:00:47.290Z,13.80
2019-05-10T06:03:19.318Z,12.00
2019-05-10T06:05:41.179Z,12.10
2019-05-10T06:08:21.435Z,12.30
2019-05-10T06:10:35.040Z,11.60
2019-05-10T06:13:02.169Z,12.50
2019-05-10T06:15:31.365Z,12.50
2019-05-10T06:17:57.435Z,12.20
2019-05-10T06:20:22.940Z,12.70
2019-05-10T06:23:05.540Z,12.80
2019-05-10T06:25:16.786Z,12.90
2019-05-10T06:27:43.738Z,12.80
2019-05-10T06:30:10.651Z,12.70
2019-05-10T06:32:37.582Z,12.90
2019-05-10T06:35:04.714Z,12.90
2019-05-10T06:37:31.625Z,13.00
2019-05-10T06:39:58.547Z,13.10
2019-05-10T06:42:28.804Z,13.40
2019-05-10T06:44:52.423Z,13.70
2019-05-10T06:47:21.791Z,13.90
2019-05-10T06:49:50.727Z,14.10
2019-05-10T06:52:16.216Z,14.20
2019-05-10T06:54:40.161Z,14.50
2019-05-10T06:57:11.219Z,14.70
2019-05-10T06:59:34.056Z,14.60
2019-05-10T07:02:00.980Z,11.90
2019-05-10T07:04:27.920Z,15.80
2019-05-10T07:06:55.008Z,14.50
2019-05-10T07:09:21.953Z,14.60
2019-05-10T07:11:48.928Z,14.70
2019-05-10T07:14:16.215Z,16.70
2019-05-10T07:16:43.073Z,14.80
2019-05-10T07:19:10.039Z,14.80
2019-05-10T07:21:39.014Z,14.90
2019-05-10T07:24:03.920Z,14.90
2019-05-10T07:26:30.888Z,14.70
2019-05-10T07:28:59.296Z,14.60
2019-05-10T07:31:24.777Z,14.80
2019-05-10T07:33:51.737Z,13.30
2019-05-10T07:36:20.694Z,14.60
2019-05-10T07:38:45.596Z,14.60
2019-05-10T07:41:12.563Z,14.50
2019-05-10T07:43:39.524Z,14.60
2019-05-10T07:46:07.009Z,14.50
2019-05-10T07:48:33.465Z,12.90
2019-05-10T07:51:00.381Z,14.60
2019-05-10T07:53:27.313Z,14.70
2019-05-10T07:55:54.275Z,14.80
2019-05-10T07:58:21.229Z,14.70
2019-05-10T08:00:48.180Z,14.90
2019-05-10T08:03:17.737Z,14.90
2019-05-10T08:05:46.153Z,14.90
2019-05-10T08:08:09.551Z,14.10
2019-05-10T08:10:35.911Z,14.90
2019-05-10T08:13:03.571Z,15.10
2019-05-10T08:15:34.553Z,14.70
2019-05-10T08:17:58.567Z,15.20
2019-05-10T08:20:37.604Z,15.30
2019-05-10T08:22:52.579Z,15.50
2019-05-10T08:25:18.122Z,14.40
2019-05-10T08:27:50.686Z,15.90
2019-05-10T08:30:26.327Z,16.00
2019-05-10T08:32:39.039Z,16.30
2019-05-10T08:35:16.441Z,16.20
2019-05-10T08:37:37.024Z,16.30
2019-05-10T08:39:59.896Z,16.40
2019-05-10T08:42:40.843Z,16.40
2019-05-10T08:45:04.009Z,16.60
2019-05-10T08:47:26.735Z,16.90
2019-05-10T08:50:06.304Z,16.80
2019-05-10T08:52:14.551Z,16.70
2019-05-10T08:54:42.321Z,16.80
2019-05-10T08:59:42.674Z,17.00
2019-05-10T09:02:07.946Z,16.80
2019-05-10T09:04:45.339Z,16.60
2019-05-10T09:07:02.881Z,16.40
2019-05-10T09:09:35.880Z,16.40
2019-05-10T09:11:57.830Z,16.30
2019-05-10T09:14:24.161Z,16.60
2019-05-10T09:16:59.782Z,16.90
2019-05-10T09:19:18.838Z,16.90
2019-05-10T09:21:49.631Z,15.30
2019-05-10T09:24:12.695Z,17.50
2019-05-10T09:26:37.627Z,17.40
2019-05-10T09:29:04.540Z,17.30
2019-05-10T09:31:32.659Z,17.20
2019-05-10T09:33:58.477Z,17.20
2019-05-10T09:36:31.327Z,16.80
2019-05-10T09:38:52.898Z,16.90
2019-05-10T09:41:19.275Z,17.00
2019-05-10T09:43:48.831Z,17.00
2019-05-10T09:46:14.232Z,17.10
2019-05-10T09:48:44.741Z,16.90
2019-05-10T09:51:07.125Z,16.90
2019-05-10T09:53:34.062Z,16.90
2019-05-10T09:56:03.160Z,17.10
2019-05-10T09:58:28.575Z,17.20
2019-05-10T10:01:11.093Z,17.20
2019-05-10T10:03:21.787Z,17.20
2019-05-10T10:05:48.713Z,17.30
2019-05-10T10:08:17.569Z,17.60
2019-05-10T10:10:42.643Z,17.30
2019-05-10T10:13:13.538Z,17.40
2019-05-10T10:15:37.271Z,18.30
2019-05-10T10:18:04.060Z,18.40
2019-05-10T10:20:35.925Z,18.40
2019-05-10T10:23:00.415Z,18.30
2019-05-10T10:25:29.936Z,18.20
2019-05-10T10:27:54.322Z,17.90
2019-05-10T10:30:21.638Z,17.80
2019-05-10T10:32:48.183Z,17.90
2019-05-10T10:35:21.039Z,17.50
2019-05-10T10:37:42.057Z,17.60
2019-05-10T10:40:09.134Z,17.70
2019-05-10T10:42:38.022Z,17.60
2019-05-10T10:45:04.089Z,17.40
2019-05-10T10:47:32.260Z,16.70
2019-05-10T10:49:58.027Z,17.10
2019-05-10T10:52:24.853Z,17.00
2019-05-10T10:54:51.785Z,16.90
2019-05-10T10:57:18.721Z,16.90
2019-05-10T10:59:47.444Z,17.00
2019-05-10T11:02:33.434Z,17.00
2019-05-10T11:04:40.463Z,17.10
2019-05-10T11:07:10.334Z,17.00
2019-05-10T11:09:33.687Z,16.80
2019-05-10T11:12:00.988Z,17.20
2019-05-10T11:14:32.077Z,17.30
2019-05-10T11:16:57.116Z,17.30
2019-05-10T11:19:22.780Z,17.50
2019-05-10T11:21:51.401Z,17.70
2019-05-10T11:24:20.041Z,17.90
2019-05-10T11:26:44.942Z,18.00
2019-05-10T11:29:13.920Z,18.20
2019-05-10T11:31:37.490Z,18.40
2019-05-10T11:34:06.219Z,18.50
2019-05-10T11:36:31.461Z,18.60
2019-05-10T11:38:58.817Z,19.30
2019-05-10T11:41:25.251Z,19.90
2019-05-10T11:43:52.180Z,20.60
2019-05-10T11:46:20.881Z,21.10
2019-05-10T11:48:46.037Z,21.30
2019-05-10T11:51:17.268Z,21.40
2019-05-10T11:53:41.484Z,21.60
2019-05-10T11:56:07.874Z,21.30
2019-05-10T11:58:37.804Z,21.50
2019-05-10T12:01:12.934Z,21.20
2019-05-10T12:03:27.756Z,21.20
2019-05-10T12:06:04.599Z,21.10
2019-05-10T12:08:22.370Z,20.90
2019-05-10T12:10:52.981Z,20.70
2019-05-10T12:13:19.866Z,20.40
2019-05-10T12:15:43.233Z,20.20
2019-05-10T12:18:14.296Z,20.30
2019-05-10T12:20:50.713Z,20.50
2019-05-10T12:23:03.765Z,20.40
2019-05-10T12:26:16.068Z,20.30
2019-05-10T12:27:57.255Z,20.10
2019-05-10T12:30:24.180Z,18.30
2019-05-10T12:32:56.288Z,19.10
2019-05-10T12:35:18.070Z,19.00
2019-05-10T12:37:49.766Z,18.70
2019-05-10T12:40:15.171Z,18.20
2019-05-10T12:42:38.895Z,18.00
2019-05-10T12:45:05.872Z,17.80
2019-05-10T12:47:33.771Z,17.70
2019-05-10T12:50:02.078Z,17.90
2019-05-10T12:52:28.696Z,18.00
2019-05-10T12:54:53.696Z,18.50
2019-05-10T12:57:20.628Z,18.70
2019-05-10T12:59:47.578Z,18.80
2019-05-10T13:02:14.482Z,19.20
2019-05-10T13:04:41.409Z,19.70
2019-05-10T13:07:08.336Z,19.70
2019-05-10T13:09:40.415Z,19.50
2019-05-10T13:12:04.065Z,19.60
2019-05-10T13:14:29.412Z,19.70
2019-05-10T13:16:56.092Z,19.50
2019-05-10T13:19:23.032Z,19.60
2019-05-10T13:21:53.637Z,19.50
2019-05-10T13:24:17.460Z,19.50
2019-05-10T13:26:44.994Z,19.50
2019-05-10T13:29:11.943Z,19.20
2019-05-10T13:31:42.886Z,19.00
2019-05-10T13:34:05.829Z,19.10
2019-05-10T13:36:37.600Z,18.90
2019-05-10T13:38:59.719Z,18.80
2019-05-10T13:41:26.720Z,18.90
2019-05-10T13:43:53.625Z,18.90
2019-05-10T13:46:20.554Z,18.70
2019-05-10T13:48:47.491Z,18.60
2019-05-10T13:51:14.422Z,18.30
2019-05-10T13:53:41.333Z,18.00
2019-05-10T13:56:08.310Z,17.60
2019-05-10T13:58:35.232Z,17.10
2019-05-10T14:01:06.547Z,16.50
2019-05-10T14:03:43.310Z,16.40
2019-05-10T14:05:56.085Z,16.10
2019-05-10T14:08:23.021Z,15.90
2019-05-10T14:10:49.978Z,15.80
2019-05-10T14:13:17.189Z,15.80
2019-05-10T14:15:43.849Z,15.70
2019-05-10T14:18:10.796Z,15.40
2019-05-10T14:20:37.721Z,15.50
2019-05-10T14:23:07.073Z,15.40
2019-05-10T14:25:38.979Z,15.50
2019-05-10T14:28:00.943Z,15.60
2019-05-10T14:30:27.875Z,15.70
2019-05-10T14:32:54.825Z,15.90
2019-05-10T14:35:22.496Z,15.20
2019-05-10T14:37:48.689Z,16.30
2019-05-10T14:40:16.928Z,18.30
2019-05-10T14:42:42.604Z,16.40
2019-05-10T14:45:09.533Z,16.60
2019-05-10T14:47:46.832Z,16.70
2019-05-10T14:50:03.920Z,16.80
2019-05-10T14:52:30.857Z,17.00
2019-05-10T14:54:57.841Z,17.00
2019-05-10T14:57:24.780Z,17.10
2019-05-10T14:59:51.707Z,17.20
2019-05-10T15:02:22.870Z,17.30
2019-05-10T15:04:47.150Z,17.50
2019-05-10T15:07:14.488Z,17.50
2019-05-10T15:09:39.483Z,17.60
2019-05-10T15:12:10.157Z,17.70
2019-05-10T15:14:33.371Z,17.70
2019-05-10T15:17:00.394Z,17.60
2019-05-10T15:19:31.223Z,17.70
2019-05-10T15:21:54.551Z,17.40
2019-05-10T15:24:21.957Z,17.30
2019-05-10T15:26:48.915Z,17.50
2019-05-10T15:29:22.580Z,17.40
2019-05-10T15:31:42.769Z,17.30
2019-05-10T15:34:09.706Z,17.30
2019-05-10T15:36:36.644Z,17.30
2019-05-10T15:39:05.605Z,16.30
2019-05-10T15:41:32.565Z,17.10
2019-05-10T15:43:59.526Z,17.10
2019-05-10T15:46:35.724Z,16.90
2019-05-10T15:48:53.381Z,16.80
2019-05-10T15:51:34.104Z,16.70
2019-05-10T15:53:47.544Z,16.70
2019-05-10T15:56:14.495Z,16.70
2019-05-10T15:58:42.616Z,16.70
2019-05-10T16:01:08.402Z,16.60
2019-05-10T16:03:35.317Z,16.60
2019-05-10T16:06:02.292Z,16.70
2019-05-10T16:08:30.437Z,14.70
2019-05-10T16:10:56.248Z,16.60
2019-05-10T16:13:25.079Z,16.50
2019-05-10T16:15:51.572Z,16.60
2019-05-10T16:18:17.097Z,16.50
2019-05-10T16:20:44.073Z,16.60
2019-05-10T16:23:11.206Z,16.60
2019-05-10T16:25:42.711Z,16.60
2019-05-10T16:28:06.251Z,16.60
2019-05-10T16:30:36.390Z,15.70
2019-05-10T16:33:00.131Z,16.70
2019-05-10T16:35:38.088Z,16.70
2019-05-10T16:37:54.005Z,16.80
2019-05-10T16:40:20.966Z,16.70
2019-05-10T16:42:47.888Z,16.80
2019-05-10T16:45:14.855Z,16.80
2019-05-10T16:47:41.798Z,16.60
2019-05-10T16:50:08.736Z,16.70
2019-05-10T16:52:35.673Z,16.70
2019-05-10T16:55:04.119Z,16.70
2019-05-10T16:57:31.982Z,16.60
2019-05-10T17:00:01.895Z,16.60
2019-05-10T17:02:24.010Z,16.50
2019-05-10T17:04:51.004Z,16.50
2019-05-10T17:07:20.605Z,16.50
2019-05-10T17:09:49.406Z,15.20
2019-05-10T17:12:12.932Z,16.60
2019-05-10T17:14:39.928Z,16.50
2019-05-10T17:17:06.857Z,16.40
2019-05-10T17:19:35.961Z,16.40
2019-05-10T17:22:00.784Z,14.60
2019-05-10T17:24:27.714Z,15.20
2019-05-10T17:26:55.058Z,16.40
2019-05-10T17:29:22.049Z,16.40
2019-05-10T17:31:48.976Z,16.00
2019-05-10T17:34:27.714Z,16.30
2019-05-10T17:36:42.916Z,16.10
2019-05-10T17:39:09.832Z,16.20
2019-05-10T17:41:36.757Z,16.20
2019-05-10T17:44:03.707Z,16.00
2019-05-10T17:46:30.619Z,16.20
2019-05-10T17:48:57.612Z,16.20
2019-05-10T17:51:24.644Z,16.20
2019-05-10T17:53:54.812Z,16.10
2019-05-10T17:56:18.452Z,16.10
2019-05-10T17:58:45.412Z,16.20
2019-05-10T18:01:12.383Z,16.10
2019-05-10T18:03:39.350Z,16.10
2019-05-10T18:06:21.941Z,16.10
2019-05-10T18:08:35.366Z,16.00
2019-05-10T18:11:03.953Z,16.00
2019-05-10T18:13:29.280Z,16.00
2019-05-10T18:15:56.258Z,15.90
2019-05-10T18:18:23.209Z,15.80
2019-05-10T18:20:50.192Z,15.80
2019-05-10T18:23:21.202Z,15.70
2019-05-10T18:25:44.082Z,15.70
2019-05-10T18:28:12.783Z,15.60
2019-05-10T18:30:39.680Z,15.60
2019-05-10T18:33:12.120Z,15.50
2019-05-10T18:35:33.567Z,15.50
2019-05-10T18:38:00.952Z,15.40
2019-05-10T18:40:31.528Z,15.40
2019-05-10T18:42:57.765Z,15.30
2019-05-10T18:45:23.407Z,15.30
2019-05-10T18:47:48.305Z,14.20
2019-05-10T18:50:15.253Z,13.80
2019-05-10T18:52:42.183Z,15.00
2019-05-10T18:55:09.109Z,14.50
2019-05-10T18:57:36.100Z,14.90
2019-05-10T19:00:03.299Z,13.00
2019-05-10T19:02:30.100Z,14.90
2019-05-10T19:04:57.059Z,14.80
2019-05-10T19:07:23.980Z,14.80
2019-05-10T19:09:50.929Z,14.80
2019-05-10T19:12:19.182Z,13.30
2019-05-10T19:14:44.792Z,14.60
2019-05-10T19:17:11.712Z,14.50
2019-05-10T19:19:42.029Z,14.50
2019-05-10T19:22:09.296Z,14.40
2019-05-10T19:24:35.387Z,14.40
2019-05-10T19:27:07.282Z,14.30
2019-05-10T19:29:29.473Z,14.20
2019-05-10T19:31:56.440Z,14.20
2019-05-10T19:34:23.369Z,14.30
2019-05-10T19:36:50.327Z,14.20
2019-05-10T19:39:17.209Z,14.20
2019-05-10T19:41:44.136Z,14.20
2019-05-10T19:44:11.066Z,14.20
2019-05-10T19:46:39.832Z,14.20
2019-05-10T19:49:07.562Z,13.90
2019-05-10T19:51:31.847Z,14.20
2019-05-10T19:53:58.800Z,14.10
2019-05-10T19:56:30.207Z,14.10
2019-05-10T19:58:52.691Z,14.10
2019-05-10T20:01:19.625Z,14.00
2019-05-10T20:03:46.573Z,14.00
2019-05-10T20:06:13.499Z,13.40
2019-05-10T20:08:40.444Z,14.10
2019-05-10T20:11:07.364Z,14.10
2019-05-10T20:13:34.311Z,14.10
2019-05-10T20:16:01.603Z,14.00
2019-05-10T20:18:28.204Z,14.00
2019-05-10T20:20:55.148Z,14.00
2019-05-10T20:23:22.093Z,13.80
2019-05-10T20:25:49.099Z,14.00
2019-05-10T20:28:16.023Z,13.90
2019-05-10T20:30:43.717Z,14.00
2019-05-10T20:33:10.657Z,13.90
2019-05-10T20:35:37.601Z,13.90
2019-05-10T20:38:04.528Z,13.90
2019-05-10T20:40:31.526Z,13.80
2019-05-10T20:42:58.474Z,13.80
2019-05-10T20:45:25.384Z,13.80
2019-05-10T20:47:52.313Z,13.80
2019-05-10T20:50:19.246Z,13.70
2019-05-10T20:52:46.161Z,13.70
2019-05-10T20:55:13.107Z,13.80
2019-05-10T20:57:40.052Z,13.70
2019-05-10T21:00:06.980Z,12.70
2019-05-10T21:02:33.935Z,13.60
2019-05-10T21:05:00.860Z,13.60
2019-05-10T21:07:27.795Z,13.60
2019-05-10T21:09:54.740Z,13.50
2019-05-10T21:12:21.664Z,13.50
2019-05-10T21:14:48.628Z,13.40
2019-05-10T21:17:15.573Z,13.00
2019-05-10T21:19:42.495Z,12.20
2019-05-10T21:22:09.435Z,13.40
2019-05-10T21:24:36.397Z,13.40
2019-05-10T21:27:03.364Z,13.40
2019-05-10T21:29:30.322Z,13.40
2019-05-10T21:31:59.242Z,13.40
2019-05-10T21:34:26.183Z,13.40
2019-05-10T21:36:53.124Z,13.40
2019-05-10T21:39:20.074Z,13.40
2019-05-10T21:41:47.280Z,13.30
2019-05-10T21:44:14.201Z,13.30
2019-05-10T21:46:41.178Z,13.30
2019-05-10T21:49:08.166Z,13.30
2019-05-10T21:51:35.134Z,13.30
2019-05-10T21:54:02.167Z,13.30
2019-05-10T21:56:29.110Z,13.30
2019-05-10T21:58:56.085Z,13.20
2019-05-10T22:01:23.084Z,14.20
2019-05-10T22:03:50.076Z,13.00
2019-05-10T22:06:17.072Z,13.10
2019-05-10T22:08:49.341Z,13.00
2019-05-10T22:11:11.024Z,12.90
2019-05-10T22:13:37.983Z,12.90
2019-05-10T22:16:05.042Z,12.80
2019-05-10T22:18:32.068Z,12.80
2019-05-10T22:20:59.052Z,12.80
2019-05-10T22:23:26.017Z,12.70
2019-05-10T22:25:52.968Z,12.70
2019-05-10T22:28:19.935Z,12.70
2019-05-10T22:30:46.920Z,12.80
2019-05-10T22:33:14.062Z,12.80
2019-05-10T22:35:41.047Z,12.70
2019-05-10T22:38:08.053Z,12.70
2019-05-10T22:40:35.014Z,12.60
2019-05-10T22:43:01.994Z,12.60
2019-05-10T22:45:29.010Z,12.60
2019-05-10T22:47:55.986Z,12.50
2019-05-10T22:50:22.973Z,12.60
2019-05-10T22:52:49.965Z,12.50
2019-05-10T22:55:16.930Z,12.50
2019-05-10T22:57:43.896Z,12.60
2019-05-10T23:00:10.893Z,12.50
2019-05-10T23:02:37.844Z,12.40
2019-05-10T23:05:04.833Z,12.50
2019-05-10T23:07:31.838Z,12.50
2019-05-10T23:09:58.796Z,12.50
2019-05-10T23:12:25.767Z,12.40
2019-05-10T23:14:52.757Z,12.40
2019-05-10T23:17:19.707Z,12.30
2019-05-10T23:19:46.699Z,14.10
2019-05-10T23:22:13.670Z,12.30
2019-05-10T23:24:40.667Z,12.30
2019-05-10T23:27:07.656Z,12.40
2019-05-10T23:29:34.861Z,12.30
2019-05-10T23:32:01.837Z,12.20
2019-05-10T23:34:29.989Z,12.30
2019-05-10T23:36:57.009Z,12.30
2019-05-10T23:39:38.362Z,12.30
2019-05-10T23:41:50.958Z,12.30
2019-05-10T23:44:17.961Z,12.30
2019-05-10T23:46:44.944Z,12.30
2019-05-10T23:49:11.929Z,12.30
2019-05-10T23:51:38.905Z,12.20
2019-05-10T23:54:05.900Z,12.20
2019-05-10T23:56:32.865Z,11.50
2019-05-10T23:58:59.864Z,12.20
